sensor_id;sensor_type;location;lat;lon;timestamp;temperature;humidity
9527;DHT22;4802;51.494;6.770;2022-09-13T17:15:24;24.30;1.00
9527;DHT22;4802;51.494;6.770;2022-09-13T17:17:53;24.10;1.00
9527;DHT22;4802;51.494;6.770;2022-09-13T17:20:25;24.30;1.00
9527;DHT22;4802;51.494;6.770;2022-09-13T17:22:57;24.20;1.00
9527;DHT22;4802;51.494;6.770;2022-09-13T17:25:27;24.20;1.00
9527;DHT22;4802;51.494;6.770;2022-09-13T17:27:58;24.20;1.00
9527;DHT22;4802;51.494;6.770;2022-09-13T17:30:29;24.20;1.00
9527;DHT22;4802;51.494;6.770;2022-09-13T17:32:58;24.20;1.00
9527;DHT22;4802;51.494;6.770;2022-09-13T17:35:29;24.20;1.00
9527;DHT22;4802;51.494;6.770;2022-09-13T17:38:12;24.10;1.00
9527;DHT22;4802;51.494;6.770;2022-09-13T17:40:41;24.10;1.00
9527;DHT22;4802;51.494;6.770;2022-09-13T17:43:12;23.70;1.00
9527;DHT22;4802;51.494;6.770;2022-09-13T17:45:43;24.10;1.00
9527;DHT22;4802;51.494;6.770;2022-09-13T17:48:12;24.00;1.00
9527;DHT22;4802;51.494;6.770;2022-09-13T17:50:42;24.00;1.00
9527;DHT22;4802;51.494;6.770;2022-09-13T17:53:11;24.00;1.00
9527;DHT22;4802;51.494;6.770;2022-09-13T17:55:48;24.00;1.00
9527;DHT22;4802;51.494;6.770;2022-09-13T17:58:24;23.90;1.00
9527;DHT22;4802;51.494;6.770;2022-09-13T18:01:02;23.90;1.00
9527;DHT22;4802;51.494;6.770;2022-09-13T18:03:32;23.90;1.00
9527;DHT22;4802;51.494;6.770;2022-09-13T18:06:04;23.80;1.00
9527;DHT22;4802;51.494;6.770;2022-09-13T18:08:35;23.90;1.00
9527;DHT22;4802;51.494;6.770;2022-09-13T18:11:08;23.80;1.00
9527;DHT22;4802;51.494;6.770;2022-09-13T18:13:41;23.80;1.00
9527;DHT22;4802;51.494;6.770;2022-09-13T18:16:17;23.70;1.00
9527;DHT22;4802;51.494;6.770;2022-09-13T18:18:48;23.70;1.00
9527;DHT22;4802;51.494;6.770;2022-09-13T18:21:20;23.60;1.00
9527;DHT22;4802;51.494;6.770;2022-09-13T18:23:51;23.60;1.00
9527;DHT22;4802;51.494;6.770;2022-09-13T18:26:21;23.60;1.00
9527;DHT22;4802;51.494;6.770;2022-09-13T18:28:53;23.50;1.00
9527;DHT22;4802;51.494;6.770;2022-09-13T18:31:24;23.50;1.00
9527;DHT22;4802;51.494;6.770;2022-09-13T18:33:57;23.60;1.00
9527;DHT22;4802;51.494;6.770;2022-09-13T18:36:41;23.70;1.00
9527;DHT22;4802;51.494;6.770;2022-09-13T18:39:15;23.60;1.00
9527;DHT22;4802;51.494;6.770;2022-09-13T18:41:45;23.60;1.00
9527;DHT22;4802;51.494;6.770;2022-09-13T18:44:17;23.60;1.00
9527;DHT22;4802;51.494;6.770;2022-09-13T18:46:50;23.60;1.00
9527;DHT22;4802;51.494;6.770;2022-09-13T18:49:21;23.60;1.00
9527;DHT22;4802;51.494;6.770;2022-09-13T18:51:50;23.60;1.00
9527;DHT22;4802;51.494;6.770;2022-09-13T18:54:19;23.60;1.00
9527;DHT22;4802;51.494;6.770;2022-09-13T18:56:48;23.60;1.00
9527;DHT22;4802;51.494;6.770;2022-09-13T18:59:17;23.60;1.00
9527;DHT22;4802;51.494;6.770;2022-09-13T19:01:46;23.50;1.00
9527;DHT22;4802;51.494;6.770;2022-09-13T19:04:22;23.50;1.00
9527;DHT22;4802;51.494;6.770;2022-09-13T19:06:52;23.50;1.00
9527;DHT22;4802;51.494;6.770;2022-09-13T19:09:22;23.30;1.00
9527;DHT22;4802;51.494;6.770;2022-09-13T19:11:53;23.30;1.00
9527;DHT22;4802;51.494;6.770;2022-09-13T19:14:24;23.40;1.00
9527;DHT22;4802;51.494;6.770;2022-09-13T19:16:55;23.20;1.00
9527;DHT22;4802;51.494;6.770;2022-09-13T19:19:25;23.10;1.00
9527;DHT22;4802;51.494;6.770;2022-09-13T19:21:55;23.00;1.00
9527;DHT22;4802;51.494;6.770;2022-09-13T19:24:24;22.90;1.00
9527;DHT22;4802;51.494;6.770;2022-09-13T19:26:54;22.80;1.00
9527;DHT22;4802;51.494;6.770;2022-09-13T19:29:23;22.80;1.00
9527;DHT22;4802;51.494;6.770;2022-09-13T19:31:53;22.80;1.00
9527;DHT22;4802;51.494;6.770;2022-09-13T19:34:22;22.70;1.00
9527;DHT22;4802;51.494;6.770;2022-09-13T19:36:53;22.60;1.00
9527;DHT22;4802;51.494;6.770;2022-09-13T19:39:24;22.60;1.00
9527;DHT22;4802;51.494;6.770;2022-09-13T19:41:57;22.50;1.00
9527;DHT22;4802;51.494;6.770;2022-09-13T19:44:27;22.50;1.00
9527;DHT22;4802;51.494;6.770;2022-09-13T19:46:57;22.50;1.00
9527;DHT22;4802;51.494;6.770;2022-09-13T19:49:46;22.50;1.00
9527;DHT22;4802;51.494;6.770;2022-09-13T19:52:20;22.30;1.00
9527;DHT22;4802;51.494;6.770;2022-09-13T19:54:49;22.30;1.00
9527;DHT22;4802;51.494;6.770;2022-09-13T19:57:18;22.20;1.00
9527;DHT22;4802;51.494;6.770;2022-09-13T19:59:47;22.10;1.00
9527;DHT22;4802;51.494;6.770;2022-09-13T20:02:16;22.00;1.00
9527;DHT22;4802;51.494;6.770;2022-09-13T20:04:45;21.60;1.00
9527;DHT22;4802;51.494;6.770;2022-09-13T20:07:17;21.70;1.00
9527;DHT22;4802;51.494;6.770;2022-09-13T20:09:47;21.60;1.00
9527;DHT22;4802;51.494;6.770;2022-09-13T20:12:16;21.50;1.00
9527;DHT22;4802;51.494;6.770;2022-09-13T20:14:45;21.50;1.00
9527;DHT22;4802;51.494;6.770;2022-09-13T20:17:14;21.50;1.00
9527;DHT22;4802;51.494;6.770;2022-09-13T20:19:43;21.40;1.00
9527;DHT22;4802;51.494;6.770;2022-09-13T20:22:16;21.30;1.00
9527;DHT22;4802;51.494;6.770;2022-09-13T20:24:47;21.30;1.00
9527;DHT22;4802;51.494;6.770;2022-09-13T20:27:16;21.20;1.00
9527;DHT22;4802;51.494;6.770;2022-09-13T20:29:44;21.20;1.00
9527;DHT22;4802;51.494;6.770;2022-09-13T20:32:13;20.70;1.00
9527;DHT22;4802;51.494;6.770;2022-09-13T20:34:42;21.00;1.00
9527;DHT22;4802;51.494;6.770;2022-09-13T20:37:12;21.00;1.00
9527;DHT22;4802;51.494;6.770;2022-09-13T20:39:41;21.00;1.00
9527;DHT22;4802;51.494;6.770;2022-09-13T20:42:11;21.00;1.00
9527;DHT22;4802;51.494;6.770;2022-09-13T20:44:40;20.90;1.00
9527;DHT22;4802;51.494;6.770;2022-09-13T20:47:09;20.90;1.00
9527;DHT22;4802;51.494;6.770;2022-09-13T20:49:38;20.90;1.00
9527;DHT22;4802;51.494;6.770;2022-09-13T20:52:07;21.00;1.00
9527;DHT22;4802;51.494;6.770;2022-09-13T20:54:36;20.90;1.00
9527;DHT22;4802;51.494;6.770;2022-09-13T20:57:05;20.80;1.00
9527;DHT22;4802;51.494;6.770;2022-09-13T20:59:36;20.90;1.00
9527;DHT22;4802;51.494;6.770;2022-09-13T21:02:07;20.80;1.00
9527;DHT22;4802;51.494;6.770;2022-09-13T21:04:36;20.80;1.00
9527;DHT22;4802;51.494;6.770;2022-09-13T21:07:05;20.80;1.00
9527;DHT22;4802;51.494;6.770;2022-09-13T21:09:52;20.80;1.00
9527;DHT22;4802;51.494;6.770;2022-09-13T21:12:20;20.70;1.00
9527;DHT22;4802;51.494;6.770;2022-09-13T21:14:53;20.70;1.00
9527;DHT22;4802;51.494;6.770;2022-09-13T21:17:22;20.70;1.00
9527;DHT22;4802;51.494;6.770;2022-09-13T21:19:51;20.70;1.00
9527;DHT22;4802;51.494;6.770;2022-09-13T21:22:19;20.70;1.00
9527;DHT22;4802;51.494;6.770;2022-09-13T21:24:48;20.10;1.00
9527;DHT22;4802;51.494;6.770;2022-09-13T21:27:17;20.60;1.00
9527;DHT22;4802;51.494;6.770;2022-09-13T21:29:46;20.60;1.00
9527;DHT22;4802;51.494;6.770;2022-09-13T21:32:16;20.50;1.00
9527;DHT22;4802;51.494;6.770;2022-09-13T21:34:45;20.50;1.00
9527;DHT22;4802;51.494;6.770;2022-09-13T21:37:14;20.40;1.00
9527;DHT22;4802;51.494;6.770;2022-09-13T21:39:43;20.40;1.00
9527;DHT22;4802;51.494;6.770;2022-09-13T21:42:12;20.30;1.00
9527;DHT22;4802;51.494;6.770;2022-09-13T21:44:44;20.40;1.00
9527;DHT22;4802;51.494;6.770;2022-09-13T21:47:13;20.30;1.00
9527;DHT22;4802;51.494;6.770;2022-09-13T21:49:43;20.30;1.00
9527;DHT22;4802;51.494;6.770;2022-09-13T21:52:12;20.40;1.00
9527;DHT22;4802;51.494;6.770;2022-09-13T21:54:41;20.30;1.00
9527;DHT22;4802;51.494;6.770;2022-09-13T21:57:10;20.20;1.00
9527;DHT22;4802;51.494;6.770;2022-09-13T21:59:39;20.20;1.00
9527;DHT22;4802;51.494;6.770;2022-09-13T22:02:08;20.20;1.00
9527;DHT22;4802;51.494;6.770;2022-09-13T22:04:37;20.10;1.00
9527;DHT22;4802;51.494;6.770;2022-09-13T22:07:08;20.00;1.00
9527;DHT22;4802;51.494;6.770;2022-09-13T22:09:37;20.00;1.00
9527;DHT22;4802;51.494;6.770;2022-09-13T22:12:06;20.00;1.00
9527;DHT22;4802;51.494;6.770;2022-09-13T22:14:35;20.00;1.00
9527;DHT22;4802;51.494;6.770;2022-09-13T22:17:03;20.00;1.00
9527;DHT22;4802;51.494;6.770;2022-09-13T22:19:32;20.00;1.00
9527;DHT22;4802;51.494;6.770;2022-09-13T22:22:01;20.00;1.00
9527;DHT22;4802;51.494;6.770;2022-09-13T22:24:31;20.00;1.00
9527;DHT22;4802;51.494;6.770;2022-09-13T22:27:02;19.90;1.00
9527;DHT22;4802;51.494;6.770;2022-09-13T22:29:33;19.80;1.00
9527;DHT22;4802;51.494;6.770;2022-09-13T22:32:02;19.80;1.00
9527;DHT22;4802;51.494;6.770;2022-09-13T22:34:32;19.80;1.00
9527;DHT22;4802;51.494;6.770;2022-09-13T22:37:01;19.70;1.00
9527;DHT22;4802;51.494;6.770;2022-09-13T22:39:31;19.70;1.00
9527;DHT22;4802;51.494;6.770;2022-09-13T22:42:00;19.80;1.00
9527;DHT22;4802;51.494;6.770;2022-09-13T22:44:28;19.80;1.00
9527;DHT22;4802;51.494;6.770;2022-09-13T22:46:57;19.70;1.00
9527;DHT22;4802;51.494;6.770;2022-09-13T22:49:26;19.70;1.00
9527;DHT22;4802;51.494;6.770;2022-09-13T22:51:55;19.70;1.00
9527;DHT22;4802;51.494;6.770;2022-09-13T22:54:24;19.70;1.00
9527;DHT22;4802;51.494;6.770;2022-09-13T22:56:56;19.60;1.00
9527;DHT22;4802;51.494;6.770;2022-09-13T22:59:25;19.60;1.00
9527;DHT22;4802;51.494;6.770;2022-09-13T23:01:54;19.50;1.00
9527;DHT22;4802;51.494;6.770;2022-09-13T23:04:23;19.50;1.00
9527;DHT22;4802;51.494;6.770;2022-09-13T23:06:52;19.50;1.00
9527;DHT22;4802;51.494;6.770;2022-09-13T23:09:21;19.10;1.00
9527;DHT22;4802;51.494;6.770;2022-09-13T23:11:51;19.40;1.00
9527;DHT22;4802;51.494;6.770;2022-09-13T23:14:24;19.40;1.00
9527;DHT22;4802;51.494;6.770;2022-09-13T23:16:53;19.30;1.00
9527;DHT22;4802;51.494;6.770;2022-09-13T23:19:22;19.30;1.00
9527;DHT22;4802;51.494;6.770;2022-09-13T23:21:54;19.20;1.00
9527;DHT22;4802;51.494;6.770;2022-09-13T23:24:23;19.10;1.00
9527;DHT22;4802;51.494;6.770;2022-09-13T23:26:53;19.10;1.00
9527;DHT22;4802;51.494;6.770;2022-09-13T23:29:25;19.00;1.00
9527;DHT22;4802;51.494;6.770;2022-09-13T23:31:53;19.00;1.00
9527;DHT22;4802;51.494;6.770;2022-09-13T23:34:22;19.00;1.00
9527;DHT22;4802;51.494;6.770;2022-09-13T23:36:51;19.00;1.00
9527;DHT22;4802;51.494;6.770;2022-09-13T23:39:21;19.00;1.00
9527;DHT22;4802;51.494;6.770;2022-09-13T23:41:49;19.00;1.00
9527;DHT22;4802;51.494;6.770;2022-09-13T23:44:18;19.10;1.00
9527;DHT22;4802;51.494;6.770;2022-09-13T23:46:49;19.00;1.00
9527;DHT22;4802;51.494;6.770;2022-09-13T23:49:18;19.00;1.00
9527;DHT22;4802;51.494;6.770;2022-09-13T23:51:47;19.00;1.00
9527;DHT22;4802;51.494;6.770;2022-09-13T23:54:16;18.90;1.00
9527;DHT22;4802;51.494;6.770;2022-09-13T23:56:45;18.80;1.00
9527;DHT22;4802;51.494;6.770;2022-09-13T23:59:14;18.70;1.00
